sensor_id;sensor_type;location;lat;lon;timestamp;P1;durP1;ratioP1;P2;durP2;ratioP2
63217;SDS011;49314;48.278;16.378;2023-03-01T00:01:15;42.70;;;39.50;;
63217;SDS011;49314;48.278;16.378;2023-03-01T00:03:43;43.92;;;40.70;;
63217;SDS011;49314;48.278;16.378;2023-03-01T00:06:08;46.00;;;42.80;;
63217;SDS011;49314;48.278;16.378;2023-03-01T00:08:34;46.38;;;43.15;;
63217;SDS011;49314;48.278;16.378;2023-03-01T00:11:17;45.97;;;42.85;;
63217;SDS011;49314;48.278;16.378;2023-03-01T00:13:42;44.77;;;41.47;;
63217;SDS011;49314;48.278;16.378;2023-03-01T00:16:12;45.92;;;42.55;;
63217;SDS011;49314;48.278;16.378;2023-03-01T00:18:38;49.50;;;45.60;;
63217;SDS011;49314;48.278;16.378;2023-03-01T00:21:03;46.72;;;43.47;;
63217;SDS011;49314;48.278;16.378;2023-03-01T00:23:29;51.67;;;47.53;;
63217;SDS011;49314;48.278;16.378;2023-03-01T00:25:54;49.95;;;45.78;;
63217;SDS011;49314;48.278;16.378;2023-03-01T00:28:20;55.17;;;50.35;;
63217;SDS011;49314;48.278;16.378;2023-03-01T00:30:45;49.95;;;46.08;;
63217;SDS011;49314;48.278;16.378;2023-03-01T00:33:10;50.63;;;46.60;;
63217;SDS011;49314;48.278;16.378;2023-03-01T00:35:36;47.80;;;44.00;;
63217;SDS011;49314;48.278;16.378;2023-03-01T00:38:01;53.17;;;48.58;;
63217;SDS011;49314;48.278;16.378;2023-03-01T00:40:27;45.75;;;42.40;;
63217;SDS011;49314;48.278;16.378;2023-03-01T00:42:53;54.53;;;49.90;;
63217;SDS011;49314;48.278;16.378;2023-03-01T00:45:18;46.33;;;43.08;;
63217;SDS011;49314;48.278;16.378;2023-03-01T00:47:44;51.95;;;47.55;;
63217;SDS011;49314;48.278;16.378;2023-03-01T00:50:09;49.95;;;46.10;;
63217;SDS011;49314;48.278;16.378;2023-03-01T00:52:35;52.45;;;47.92;;
63217;SDS011;49314;48.278;16.378;2023-03-01T00:55:00;47.53;;;43.92;;
63217;SDS011;49314;48.278;16.378;2023-03-01T00:57:25;51.72;;;47.13;;
63217;SDS011;49314;48.278;16.378;2023-03-01T00:59:51;52.25;;;47.90;;
63217;SDS011;49314;48.278;16.378;2023-03-01T01:02:17;56.55;;;51.58;;
63217;SDS011;49314;48.278;16.378;2023-03-01T01:04:42;57.17;;;51.85;;
63217;SDS011;49314;48.278;16.378;2023-03-01T01:07:08;56.33;;;51.30;;
63217;SDS011;49314;48.278;16.378;2023-03-01T01:09:33;48.58;;;44.78;;
63217;SDS011;49314;48.278;16.378;2023-03-01T01:11:58;52.33;;;47.55;;
63217;SDS011;49314;48.278;16.378;2023-03-01T01:14:23;47.42;;;43.72;;
63217;SDS011;49314;48.278;16.378;2023-03-01T01:16:48;44.22;;;41.03;;
63217;SDS011;49314;48.278;16.378;2023-03-01T01:19:14;48.88;;;44.85;;
63217;SDS011;49314;48.278;16.378;2023-03-01T01:21:40;44.53;;;41.17;;
63217;SDS011;49314;48.278;16.378;2023-03-01T01:24:07;46.45;;;42.97;;
63217;SDS011;49314;48.278;16.378;2023-03-01T01:26:33;44.55;;;41.22;;
63217;SDS011;49314;48.278;16.378;2023-03-01T01:28:59;44.92;;;41.33;;
63217;SDS011;49314;48.278;16.378;2023-03-01T01:31:25;47.35;;;43.97;;
63217;SDS011;49314;48.278;16.378;2023-03-01T01:33:50;46.35;;;43.22;;
63217;SDS011;49314;48.278;16.378;2023-03-01T01:36:16;43.47;;;40.60;;
63217;SDS011;49314;48.278;16.378;2023-03-01T01:38:41;44.00;;;40.63;;
63217;SDS011;49314;48.278;16.378;2023-03-01T01:41:07;43.75;;;40.38;;
63217;SDS011;49314;48.278;16.378;2023-03-01T01:43:34;44.97;;;41.55;;
63217;SDS011;49314;48.278;16.378;2023-03-01T01:46:01;48.10;;;44.50;;
63217;SDS011;49314;48.278;16.378;2023-03-01T01:48:29;46.80;;;43.65;;
63217;SDS011;49314;48.278;16.378;2023-03-01T01:51:05;45.15;;;41.97;;
63217;SDS011;49314;48.278;16.378;2023-03-01T01:53:30;45.05;;;41.88;;
63217;SDS011;49314;48.278;16.378;2023-03-01T01:55:56;47.90;;;44.53;;
63217;SDS011;49314;48.278;16.378;2023-03-01T01:58:23;46.20;;;42.70;;
63217;SDS011;49314;48.278;16.378;2023-03-01T02:00:49;44.83;;;41.65;;
63217;SDS011;49314;48.278;16.378;2023-03-01T02:03:17;47.47;;;44.13;;
63217;SDS011;49314;48.278;16.378;2023-03-01T02:08:09;46.13;;;42.80;;
63217;SDS011;49314;48.278;16.378;2023-03-01T02:10:36;44.42;;;40.97;;
63217;SDS011;49314;48.278;16.378;2023-03-01T02:13:02;47.85;;;44.22;;
63217;SDS011;49314;48.278;16.378;2023-03-01T02:15:31;48.33;;;44.83;;
63217;SDS011;49314;48.278;16.378;2023-03-01T02:17:56;45.80;;;42.65;;
63217;SDS011;49314;48.278;16.378;2023-03-01T02:22:50;47.15;;;43.65;;
63217;SDS011;49314;48.278;16.378;2023-03-01T02:30:24;47.92;;;44.20;;
63217;SDS011;49314;48.278;16.378;2023-03-01T02:32:49;47.53;;;43.75;;
63217;SDS011;49314;48.278;16.378;2023-03-01T02:35:16;43.90;;;40.45;;
63217;SDS011;49314;48.278;16.378;2023-03-01T02:37:43;48.67;;;45.08;;
63217;SDS011;49314;48.278;16.378;2023-03-01T02:40:10;50.08;;;45.85;;
63217;SDS011;49314;48.278;16.378;2023-03-01T02:42:41;46.30;;;42.75;;
63217;SDS011;49314;48.278;16.378;2023-03-01T02:45:09;47.60;;;44.08;;
63217;SDS011;49314;48.278;16.378;2023-03-01T02:47:35;47.78;;;44.25;;
63217;SDS011;49314;48.278;16.378;2023-03-01T02:50:00;47.75;;;44.35;;
63217;SDS011;49314;48.278;16.378;2023-03-01T02:52:45;46.67;;;43.17;;
63217;SDS011;49314;48.278;16.378;2023-03-01T02:55:12;47.97;;;44.33;;
63217;SDS011;49314;48.278;16.378;2023-03-01T02:57:40;46.40;;;43.10;;
63217;SDS011;49314;48.278;16.378;2023-03-01T03:00:07;46.78;;;43.00;;
63217;SDS011;49314;48.278;16.378;2023-03-01T03:02:33;45.83;;;42.42;;
63217;SDS011;49314;48.278;16.378;2023-03-01T03:05:06;47.10;;;43.80;;
63217;SDS011;49314;48.278;16.378;2023-03-01T03:07:33;44.55;;;41.42;;
63217;SDS011;49314;48.278;16.378;2023-03-01T03:10:00;44.88;;;41.40;;
63217;SDS011;49314;48.278;16.378;2023-03-01T03:12:25;59.70;;;54.13;;
63217;SDS011;49314;48.278;16.378;2023-03-01T03:14:50;49.65;;;45.65;;
63217;SDS011;49314;48.278;16.378;2023-03-01T03:17:15;48.40;;;44.70;;
63217;SDS011;49314;48.278;16.378;2023-03-01T03:19:41;47.70;;;44.10;;
63217;SDS011;49314;48.278;16.378;2023-03-01T03:22:06;50.35;;;46.42;;
63217;SDS011;49314;48.278;16.378;2023-03-01T03:24:33;46.80;;;42.80;;
63217;SDS011;49314;48.278;16.378;2023-03-01T03:27:03;48.90;;;44.65;;
63217;SDS011;49314;48.278;16.378;2023-03-01T03:29:28;52.72;;;48.60;;
63217;SDS011;49314;48.278;16.378;2023-03-01T03:31:54;50.08;;;46.05;;
63217;SDS011;49314;48.278;16.378;2023-03-01T03:34:19;49.10;;;45.15;;
63217;SDS011;49314;48.278;16.378;2023-03-01T03:36:44;48.67;;;44.75;;
63217;SDS011;49314;48.278;16.378;2023-03-01T03:39:09;47.15;;;43.22;;
63217;SDS011;49314;48.278;16.378;2023-03-01T03:41:34;51.63;;;47.60;;
63217;SDS011;49314;48.278;16.378;2023-03-01T03:44:00;50.67;;;46.58;;
63217;SDS011;49314;48.278;16.378;2023-03-01T03:46:25;48.90;;;45.03;;
63217;SDS011;49314;48.278;16.378;2023-03-01T03:48:50;49.63;;;45.63;;
63217;SDS011;49314;48.278;16.378;2023-03-01T03:51:16;52.00;;;47.47;;
63217;SDS011;49314;48.278;16.378;2023-03-01T03:53:42;52.08;;;47.97;;
63217;SDS011;49314;48.278;16.378;2023-03-01T03:56:07;53.75;;;49.53;;
63217;SDS011;49314;48.278;16.378;2023-03-01T03:58:33;54.50;;;49.97;;
63217;SDS011;49314;48.278;16.378;2023-03-01T04:00:58;53.13;;;49.03;;
63217;SDS011;49314;48.278;16.378;2023-03-01T04:03:24;52.17;;;48.10;;
63217;SDS011;49314;48.278;16.378;2023-03-01T04:05:50;53.10;;;48.78;;
63217;SDS011;49314;48.278;16.378;2023-03-01T04:08:16;53.05;;;48.67;;
63217;SDS011;49314;48.278;16.378;2023-03-01T04:10:45;51.70;;;47.58;;
63217;SDS011;49314;48.278;16.378;2023-03-01T04:13:12;55.63;;;51.10;;
63217;SDS011;49314;48.278;16.378;2023-03-01T04:15:38;51.63;;;47.25;;
63217;SDS011;49314;48.278;16.378;2023-03-01T04:18:03;50.42;;;46.63;;
63217;SDS011;49314;48.278;16.378;2023-03-01T04:20:30;51.30;;;47.08;;
63217;SDS011;49314;48.278;16.378;2023-03-01T04:22:59;52.13;;;47.80;;
63217;SDS011;49314;48.278;16.378;2023-03-01T04:25:33;55.28;;;50.90;;
63217;SDS011;49314;48.278;16.378;2023-03-01T04:27:58;52.53;;;48.00;;
63217;SDS011;49314;48.278;16.378;2023-03-01T04:30:23;54.35;;;49.78;;
63217;SDS011;49314;48.278;16.378;2023-03-01T04:32:50;53.55;;;49.10;;
63217;SDS011;49314;48.278;16.378;2023-03-01T04:35:15;53.30;;;48.85;;
63217;SDS011;49314;48.278;16.378;2023-03-01T04:37:40;49.92;;;45.83;;
63217;SDS011;49314;48.278;16.378;2023-03-01T04:40:06;56.75;;;51.60;;
63217;SDS011;49314;48.278;16.378;2023-03-01T04:42:41;54.13;;;49.78;;
63217;SDS011;49314;48.278;16.378;2023-03-01T04:45:07;54.58;;;50.17;;
63217;SDS011;49314;48.278;16.378;2023-03-01T04:47:38;53.40;;;48.95;;
63217;SDS011;49314;48.278;16.378;2023-03-01T04:50:03;55.13;;;50.55;;
63217;SDS011;49314;48.278;16.378;2023-03-01T04:52:28;54.15;;;49.67;;
63217;SDS011;49314;48.278;16.378;2023-03-01T04:54:53;56.20;;;51.53;;
63217;SDS011;49314;48.278;16.378;2023-03-01T04:57:19;53.25;;;49.10;;
63217;SDS011;49314;48.278;16.378;2023-03-01T04:59:44;55.50;;;51.05;;
63217;SDS011;49314;48.278;16.378;2023-03-01T05:02:10;55.00;;;50.47;;
63217;SDS011;49314;48.278;16.378;2023-03-01T05:04:35;56.45;;;51.67;;
63217;SDS011;49314;48.278;16.378;2023-03-01T05:07:00;53.72;;;49.42;;
63217;SDS011;49314;48.278;16.378;2023-03-01T05:09:25;53.45;;;49.33;;
63217;SDS011;49314;48.278;16.378;2023-03-01T05:11:50;54.53;;;49.80;;
63217;SDS011;49314;48.278;16.378;2023-03-01T05:14:16;49.13;;;44.78;;
63217;SDS011;49314;48.278;16.378;2023-03-01T05:16:42;51.75;;;47.45;;
63217;SDS011;49314;48.278;16.378;2023-03-01T05:19:07;54.63;;;49.70;;
63217;SDS011;49314;48.278;16.378;2023-03-01T05:21:47;51.15;;;46.58;;
63217;SDS011;49314;48.278;16.378;2023-03-01T05:26:56;53.35;;;48.90;;
63217;SDS011;49314;48.278;16.378;2023-03-01T05:29:21;50.60;;;46.17;;
63217;SDS011;49314;48.278;16.378;2023-03-01T05:31:53;52.97;;;48.67;;
63217;SDS011;49314;48.278;16.378;2023-03-01T05:34:19;52.97;;;48.88;;
63217;SDS011;49314;48.278;16.378;2023-03-01T05:36:47;55.13;;;50.58;;
63217;SDS011;49314;48.278;16.378;2023-03-01T05:39:12;52.60;;;48.58;;
63217;SDS011;49314;48.278;16.378;2023-03-01T05:41:38;53.03;;;48.72;;
63217;SDS011;49314;48.278;16.378;2023-03-01T05:44:03;54.17;;;49.58;;
63217;SDS011;49314;48.278;16.378;2023-03-01T05:46:30;54.15;;;49.65;;
63217;SDS011;49314;48.278;16.378;2023-03-01T05:48:56;51.60;;;47.20;;
63217;SDS011;49314;48.278;16.378;2023-03-01T05:51:21;53.03;;;48.67;;
63217;SDS011;49314;48.278;16.378;2023-03-01T05:53:47;53.08;;;48.70;;
63217;SDS011;49314;48.278;16.378;2023-03-01T05:56:12;51.75;;;47.58;;
63217;SDS011;49314;48.278;16.378;2023-03-01T05:58:37;53.90;;;49.20;;
63217;SDS011;49314;48.278;16.378;2023-03-01T06:01:03;52.75;;;48.40;;
63217;SDS011;49314;48.278;16.378;2023-03-01T06:03:28;54.45;;;50.08;;
63217;SDS011;49314;48.278;16.378;2023-03-01T06:05:57;53.53;;;48.75;;
63217;SDS011;49314;48.278;16.378;2023-03-01T06:08:22;53.75;;;49.05;;
63217;SDS011;49314;48.278;16.378;2023-03-01T06:10:49;53.80;;;49.30;;
63217;SDS011;49314;48.278;16.378;2023-03-01T06:13:14;52.70;;;48.40;;
63217;SDS011;49314;48.278;16.378;2023-03-01T06:15:39;55.72;;;50.80;;
63217;SDS011;49314;48.278;16.378;2023-03-01T06:18:04;52.35;;;48.28;;
63217;SDS011;49314;48.278;16.378;2023-03-01T06:20:30;54.55;;;49.88;;
63217;SDS011;49314;48.278;16.378;2023-03-01T06:22:55;55.60;;;51.00;;
63217;SDS011;49314;48.278;16.378;2023-03-01T06:25:21;53.45;;;49.13;;
63217;SDS011;49314;48.278;16.378;2023-03-01T06:27:47;55.97;;;51.30;;
63217;SDS011;49314;48.278;16.378;2023-03-01T06:30:14;55.10;;;50.33;;
63217;SDS011;49314;48.278;16.378;2023-03-01T06:32:39;53.83;;;49.17;;
63217;SDS011;49314;48.278;16.378;2023-03-01T06:35:11;54.75;;;50.05;;
63217;SDS011;49314;48.278;16.378;2023-03-01T06:37:37;55.90;;;51.42;;
63217;SDS011;49314;48.278;16.378;2023-03-01T06:40:03;55.75;;;51.28;;
63217;SDS011;49314;48.278;16.378;2023-03-01T06:42:33;53.50;;;49.15;;
63217;SDS011;49314;48.278;16.378;2023-03-01T06:44:59;54.53;;;50.13;;
63217;SDS011;49314;48.278;16.378;2023-03-01T06:47:24;55.47;;;50.67;;
63217;SDS011;49314;48.278;16.378;2023-03-01T06:49:49;56.38;;;51.90;;
63217;SDS011;49314;48.278;16.378;2023-03-01T06:52:14;56.60;;;51.78;;
63217;SDS011;49314;48.278;16.378;2023-03-01T06:54:39;54.13;;;49.80;;
63217;SDS011;49314;48.278;16.378;2023-03-01T06:57:05;54.38;;;49.92;;
63217;SDS011;49314;48.278;16.378;2023-03-01T06:59:30;60.53;;;55.13;;
63217;SDS011;49314;48.278;16.378;2023-03-01T07:01:56;54.65;;;49.83;;
63217;SDS011;49314;48.278;16.378;2023-03-01T07:04:21;53.00;;;48.80;;
63217;SDS011;49314;48.278;16.378;2023-03-01T07:06:46;53.55;;;48.97;;
63217;SDS011;49314;48.278;16.378;2023-03-01T07:09:19;53.47;;;49.17;;
63217;SDS011;49314;48.278;16.378;2023-03-01T07:11:46;54.33;;;50.17;;
63217;SDS011;49314;48.278;16.378;2023-03-01T07:14:11;50.50;;;46.40;;
63217;SDS011;49314;48.278;16.378;2023-03-01T07:16:37;55.33;;;50.60;;
63217;SDS011;49314;48.278;16.378;2023-03-01T07:19:02;52.08;;;47.75;;
63217;SDS011;49314;48.278;16.378;2023-03-01T07:21:27;53.20;;;48.88;;
63217;SDS011;49314;48.278;16.378;2023-03-01T07:23:52;54.72;;;50.22;;
63217;SDS011;49314;48.278;16.378;2023-03-01T07:26:18;53.42;;;49.30;;
63217;SDS011;49314;48.278;16.378;2023-03-01T07:28:43;53.72;;;49.63;;
63217;SDS011;49314;48.278;16.378;2023-03-01T07:31:08;55.47;;;51.10;;
63217;SDS011;49314;48.278;16.378;2023-03-01T07:33:33;55.58;;;51.28;;
63217;SDS011;49314;48.278;16.378;2023-03-01T07:35:59;54.08;;;49.60;;
63217;SDS011;49314;48.278;16.378;2023-03-01T07:38:25;55.35;;;50.97;;
63217;SDS011;49314;48.278;16.378;2023-03-01T07:40:51;53.85;;;49.42;;
63217;SDS011;49314;48.278;16.378;2023-03-01T07:43:16;50.95;;;46.88;;
63217;SDS011;49314;48.278;16.378;2023-03-01T07:45:41;51.90;;;47.83;;
63217;SDS011;49314;48.278;16.378;2023-03-01T07:48:06;53.13;;;48.65;;
63217;SDS011;49314;48.278;16.378;2023-03-01T07:50:32;52.38;;;48.10;;
63217;SDS011;49314;48.278;16.378;2023-03-01T07:52:57;55.88;;;51.47;;
63217;SDS011;49314;48.278;16.378;2023-03-01T07:55:22;55.47;;;51.05;;
63217;SDS011;49314;48.278;16.378;2023-03-01T07:57:47;52.60;;;48.50;;
63217;SDS011;49314;48.278;16.378;2023-03-01T08:00:13;52.95;;;48.88;;
63217;SDS011;49314;48.278;16.378;2023-03-01T08:02:38;50.83;;;46.92;;
63217;SDS011;49314;48.278;16.378;2023-03-01T08:05:05;55.22;;;50.55;;
63217;SDS011;49314;48.278;16.378;2023-03-01T08:07:30;51.78;;;47.80;;
63217;SDS011;49314;48.278;16.378;2023-03-01T08:09:55;53.20;;;48.88;;
63217;SDS011;49314;48.278;16.378;2023-03-01T08:12:21;50.55;;;46.47;;
63217;SDS011;49314;48.278;16.378;2023-03-01T08:14:46;52.88;;;48.58;;
63217;SDS011;49314;48.278;16.378;2023-03-01T08:17:13;52.17;;;47.78;;
63217;SDS011;49314;48.278;16.378;2023-03-01T08:19:38;39.95;;;36.03;;
63217;SDS011;49314;48.278;16.378;2023-03-01T08:22:03;52.30;;;47.65;;
63217;SDS011;49314;48.278;16.378;2023-03-01T08:24:29;46.25;;;42.05;;
63217;SDS011;49314;48.278;16.378;2023-03-01T08:26:54;51.97;;;47.78;;
63217;SDS011;49314;48.278;16.378;2023-03-01T08:29:20;53.55;;;49.33;;
63217;SDS011;49314;48.278;16.378;2023-03-01T08:31:45;55.47;;;50.88;;
63217;SDS011;49314;48.278;16.378;2023-03-01T08:34:12;54.78;;;50.55;;
63217;SDS011;49314;48.278;16.378;2023-03-01T08:36:41;45.42;;;41.25;;
63217;SDS011;49314;48.278;16.378;2023-03-01T08:39:07;48.78;;;44.10;;
63217;SDS011;49314;48.278;16.378;2023-03-01T08:41:33;52.45;;;48.00;;
63217;SDS011;49314;48.278;16.378;2023-03-01T08:43:58;48.30;;;44.17;;
63217;SDS011;49314;48.278;16.378;2023-03-01T08:46:27;40.45;;;35.75;;
63217;SDS011;49314;48.278;16.378;2023-03-01T08:48:53;51.08;;;46.88;;
63217;SDS011;49314;48.278;16.378;2023-03-01T08:51:19;44.58;;;40.50;;
63217;SDS011;49314;48.278;16.378;2023-03-01T08:53:45;50.97;;;46.85;;
63217;SDS011;49314;48.278;16.378;2023-03-01T08:56:10;49.42;;;45.40;;
63217;SDS011;49314;48.278;16.378;2023-03-01T08:58:36;42.65;;;38.58;;
63217;SDS011;49314;48.278;16.378;2023-03-01T09:01:06;42.20;;;37.88;;
63217;SDS011;49314;48.278;16.378;2023-03-01T09:03:31;39.33;;;35.42;;
63217;SDS011;49314;48.278;16.378;2023-03-01T09:05:59;36.35;;;32.67;;
63217;SDS011;49314;48.278;16.378;2023-03-01T09:08:25;42.70;;;38.90;;
63217;SDS011;49314;48.278;16.378;2023-03-01T09:10:50;34.78;;;31.38;;
63217;SDS011;49314;48.278;16.378;2023-03-01T09:13:15;41.08;;;36.85;;
63217;SDS011;49314;48.278;16.378;2023-03-01T09:15:40;38.28;;;34.35;;
63217;SDS011;49314;48.278;16.378;2023-03-01T09:18:05;37.08;;;33.67;;
63217;SDS011;49314;48.278;16.378;2023-03-01T09:20:31;33.55;;;30.52;;
63217;SDS011;49314;48.278;16.378;2023-03-01T09:22:57;33.45;;;30.10;;
63217;SDS011;49314;48.278;16.378;2023-03-01T09:25:22;37.88;;;34.40;;
63217;SDS011;49314;48.278;16.378;2023-03-01T09:27:49;36.25;;;32.58;;
63217;SDS011;49314;48.278;16.378;2023-03-01T09:30:16;36.33;;;33.00;;
63217;SDS011;49314;48.278;16.378;2023-03-01T09:32:41;33.63;;;30.15;;
63217;SDS011;49314;48.278;16.378;2023-03-01T09:35:07;31.95;;;28.65;;
63217;SDS011;49314;48.278;16.378;2023-03-01T09:37:33;31.20;;;27.88;;
63217;SDS011;49314;48.278;16.378;2023-03-01T09:39:59;34.33;;;30.90;;
63217;SDS011;49314;48.278;16.378;2023-03-01T09:42:24;41.22;;;37.25;;
63217;SDS011;49314;48.278;16.378;2023-03-01T09:47:51;34.45;;;31.05;;
63217;SDS011;49314;48.278;16.378;2023-03-01T09:50:18;44.75;;;40.08;;
63217;SDS011;49314;48.278;16.378;2023-03-01T09:55:16;31.05;;;27.85;;
63217;SDS011;49314;48.278;16.378;2023-03-01T10:02:46;35.53;;;32.23;;
63217;SDS011;49314;48.278;16.378;2023-03-01T10:07:50;30.92;;;28.08;;
63217;SDS011;49314;48.278;16.378;2023-03-01T10:10:28;31.00;;;28.27;;
63217;SDS011;49314;48.278;16.378;2023-03-01T10:12:53;33.55;;;30.23;;
63217;SDS011;49314;48.278;16.378;2023-03-01T10:15:34;29.27;;;26.23;;
63217;SDS011;49314;48.278;16.378;2023-03-01T10:18:09;33.47;;;29.42;;
63217;SDS011;49314;48.278;16.378;2023-03-01T10:20:42;31.98;;;28.10;;
63217;SDS011;49314;48.278;16.378;2023-03-01T10:23:09;30.73;;;27.63;;
63217;SDS011;49314;48.278;16.378;2023-03-01T10:30:46;31.60;;;28.40;;
63217;SDS011;49314;48.278;16.378;2023-03-01T10:33:16;30.42;;;27.13;;
63217;SDS011;49314;48.278;16.378;2023-03-01T10:35:42;30.70;;;27.60;;
63217;SDS011;49314;48.278;16.378;2023-03-01T10:38:08;27.02;;;24.42;;
63217;SDS011;49314;48.278;16.378;2023-03-01T10:40:34;28.60;;;25.85;;
63217;SDS011;49314;48.278;16.378;2023-03-01T10:43:04;30.02;;;27.33;;
63217;SDS011;49314;48.278;16.378;2023-03-01T10:50:43;29.73;;;26.48;;
63217;SDS011;49314;48.278;16.378;2023-03-01T10:53:25;28.35;;;25.45;;
63217;SDS011;49314;48.278;16.378;2023-03-01T10:55:57;28.88;;;26.13;;
63217;SDS011;49314;48.278;16.378;2023-03-01T10:58:23;28.75;;;25.75;;
63217;SDS011;49314;48.278;16.378;2023-03-01T11:00:50;26.00;;;23.50;;
63217;SDS011;49314;48.278;16.378;2023-03-01T11:03:18;25.33;;;22.83;;
63217;SDS011;49314;48.278;16.378;2023-03-01T11:05:54;27.60;;;25.08;;
63217;SDS011;49314;48.278;16.378;2023-03-01T11:08:28;34.05;;;30.58;;
63217;SDS011;49314;48.278;16.378;2023-03-01T11:11:02;30.10;;;27.17;;
63217;SDS011;49314;48.278;16.378;2023-03-01T11:13:28;31.23;;;28.05;;
63217;SDS011;49314;48.278;16.378;2023-03-01T11:16:04;31.63;;;28.33;;
63217;SDS011;49314;48.278;16.378;2023-03-01T11:18:30;29.70;;;27.10;;
63217;SDS011;49314;48.278;16.378;2023-03-01T11:20:55;28.60;;;25.88;;
63217;SDS011;49314;48.278;16.378;2023-03-01T11:23:22;28.45;;;25.73;;
63217;SDS011;49314;48.278;16.378;2023-03-01T11:26:05;28.10;;;25.42;;
63217;SDS011;49314;48.278;16.378;2023-03-01T11:28:32;29.90;;;26.85;;
63217;SDS011;49314;48.278;16.378;2023-03-01T11:31:04;25.98;;;23.45;;
63217;SDS011;49314;48.278;16.378;2023-03-01T11:33:44;26.23;;;23.77;;
63217;SDS011;49314;48.278;16.378;2023-03-01T11:38:48;25.20;;;22.77;;
63217;SDS011;49314;48.278;16.378;2023-03-01T11:51:17;22.60;;;20.63;;
63217;SDS011;49314;48.278;16.378;2023-03-01T12:07:01;21.33;;;19.55;;
63217;SDS011;49314;48.278;16.378;2023-03-01T12:12:11;22.35;;;20.40;;
63217;SDS011;49314;48.278;16.378;2023-03-01T12:22:30;21.85;;;19.85;;
63217;SDS011;49314;48.278;16.378;2023-03-01T12:30:02;23.57;;;21.47;;
63217;SDS011;49314;48.278;16.378;2023-03-01T12:32:43;22.00;;;20.35;;
63217;SDS011;49314;48.278;16.378;2023-03-01T12:50:53;21.70;;;19.75;;
63217;SDS011;49314;48.278;16.378;2023-03-01T12:53:23;22.55;;;20.70;;
63217;SDS011;49314;48.278;16.378;2023-03-01T12:55:49;21.42;;;19.48;;
63217;SDS011;49314;48.278;16.378;2023-03-01T12:58:21;23.08;;;21.13;;
63217;SDS011;49314;48.278;16.378;2023-03-01T13:00:58;22.20;;;20.38;;
63217;SDS011;49314;48.278;16.378;2023-03-01T13:03:31;22.45;;;20.52;;
63217;SDS011;49314;48.278;16.378;2023-03-01T13:08:46;23.17;;;21.20;;
63217;SDS011;49314;48.278;16.378;2023-03-01T13:11:20;20.83;;;18.92;;
63217;SDS011;49314;48.278;16.378;2023-03-01T13:13:46;22.25;;;20.05;;
63217;SDS011;49314;48.278;16.378;2023-03-01T13:19:17;24.60;;;22.25;;
63217;SDS011;49314;48.278;16.378;2023-03-01T13:21:40;22.25;;;20.02;;
63217;SDS011;49314;48.278;16.378;2023-03-01T13:24:23;24.63;;;22.40;;
63217;SDS011;49314;48.278;16.378;2023-03-01T13:32:25;22.52;;;20.42;;
63217;SDS011;49314;48.278;16.378;2023-03-01T13:34:56;25.30;;;23.25;;
63217;SDS011;49314;48.278;16.378;2023-03-01T13:37:26;23.05;;;21.05;;
63217;SDS011;49314;48.278;16.378;2023-03-01T13:39:54;23.02;;;20.95;;
63217;SDS011;49314;48.278;16.378;2023-03-01T13:42:31;25.23;;;23.08;;
63217;SDS011;49314;48.278;16.378;2023-03-01T13:44:57;22.90;;;20.60;;
63217;SDS011;49314;48.278;16.378;2023-03-01T13:47:22;25.95;;;23.80;;
63217;SDS011;49314;48.278;16.378;2023-03-01T13:49:55;20.70;;;18.85;;
63217;SDS011;49314;48.278;16.378;2023-03-01T13:52:40;23.48;;;21.27;;
63217;SDS011;49314;48.278;16.378;2023-03-01T13:57:54;21.77;;;19.80;;
63217;SDS011;49314;48.278;16.378;2023-03-01T14:00:34;23.10;;;20.90;;
63217;SDS011;49314;48.278;16.378;2023-03-01T14:05:38;24.73;;;22.20;;
63217;SDS011;49314;48.278;16.378;2023-03-01T14:08:04;25.13;;;20.75;;
63217;SDS011;49314;48.278;16.378;2023-03-01T14:10:50;26.42;;;23.73;;
63217;SDS011;49314;48.278;16.378;2023-03-01T14:18:47;25.60;;;23.23;;
63217;SDS011;49314;48.278;16.378;2023-03-01T14:21:13;24.02;;;21.33;;
63217;SDS011;49314;48.278;16.378;2023-03-01T14:23:39;23.85;;;21.25;;
63217;SDS011;49314;48.278;16.378;2023-03-01T14:26:07;27.20;;;24.50;;
63217;SDS011;49314;48.278;16.378;2023-03-01T14:28:33;27.17;;;24.63;;
63217;SDS011;49314;48.278;16.378;2023-03-01T14:31:02;25.08;;;22.73;;
63217;SDS011;49314;48.278;16.378;2023-03-01T14:33:28;23.27;;;20.92;;
63217;SDS011;49314;48.278;16.378;2023-03-01T14:38:43;26.85;;;24.45;;
63217;SDS011;49314;48.278;16.378;2023-03-01T14:43:36;25.52;;;21.50;;
63217;SDS011;49314;48.278;16.378;2023-03-01T14:46:02;24.88;;;22.10;;
63217;SDS011;49314;48.278;16.378;2023-03-01T14:48:28;22.20;;;19.98;;
63217;SDS011;49314;48.278;16.378;2023-03-01T14:50:54;23.85;;;21.83;;
63217;SDS011;49314;48.278;16.378;2023-03-01T14:53:20;23.13;;;21.08;;
63217;SDS011;49314;48.278;16.378;2023-03-01T14:55:56;24.55;;;22.05;;
63217;SDS011;49314;48.278;16.378;2023-03-01T14:58:25;23.15;;;20.77;;
63217;SDS011;49314;48.278;16.378;2023-03-01T15:00:57;25.08;;;22.80;;
63217;SDS011;49314;48.278;16.378;2023-03-01T15:05:51;25.27;;;22.88;;
63217;SDS011;49314;48.278;16.378;2023-03-01T15:08:18;23.80;;;21.38;;
63217;SDS011;49314;48.278;16.378;2023-03-01T15:10:54;23.08;;;20.83;;
63217;SDS011;49314;48.278;16.378;2023-03-01T15:13:23;27.35;;;24.60;;
63217;SDS011;49314;48.278;16.378;2023-03-01T15:15:49;23.65;;;21.48;;
63217;SDS011;49314;48.278;16.378;2023-03-01T15:18:17;26.80;;;24.25;;
63217;SDS011;49314;48.278;16.378;2023-03-01T15:20:43;24.77;;;22.38;;
63217;SDS011;49314;48.278;16.378;2023-03-01T15:23:27;23.98;;;21.85;;
63217;SDS011;49314;48.278;16.378;2023-03-01T15:25:53;24.23;;;22.02;;
63217;SDS011;49314;48.278;16.378;2023-03-01T15:28:24;26.48;;;24.02;;
63217;SDS011;49314;48.278;16.378;2023-03-01T15:30:54;25.23;;;22.85;;
63217;SDS011;49314;48.278;16.378;2023-03-01T15:33:36;24.85;;;22.55;;
63217;SDS011;49314;48.278;16.378;2023-03-01T15:38:55;26.45;;;24.00;;
63217;SDS011;49314;48.278;16.378;2023-03-01T15:41:26;25.50;;;23.10;;
63217;SDS011;49314;48.278;16.378;2023-03-01T15:43:52;24.70;;;22.23;;
63217;SDS011;49314;48.278;16.378;2023-03-01T15:48:50;26.23;;;23.98;;
63217;SDS011;49314;48.278;16.378;2023-03-01T15:51:17;28.33;;;25.65;;
63217;SDS011;49314;48.278;16.378;2023-03-01T15:53:48;29.42;;;26.83;;
63217;SDS011;49314;48.278;16.378;2023-03-01T15:56:14;26.58;;;24.48;;
63217;SDS011;49314;48.278;16.378;2023-03-01T15:58:39;29.00;;;26.23;;
63217;SDS011;49314;48.278;16.378;2023-03-01T16:01:08;32.47;;;29.77;;
63217;SDS011;49314;48.278;16.378;2023-03-01T16:03:37;24.83;;;22.23;;
63217;SDS011;49314;48.278;16.378;2023-03-01T16:06:02;28.40;;;25.98;;
63217;SDS011;49314;48.278;16.378;2023-03-01T16:08:28;29.83;;;26.98;;
63217;SDS011;49314;48.278;16.378;2023-03-01T16:10:54;24.15;;;21.85;;
63217;SDS011;49314;48.278;16.378;2023-03-01T16:13:19;25.77;;;23.58;;
63217;SDS011;49314;48.278;16.378;2023-03-01T16:15:44;26.90;;;24.48;;
63217;SDS011;49314;48.278;16.378;2023-03-01T16:18:10;22.38;;;19.98;;